createdAt,value
2023-01-28T00:02:05.636Z,100445.30
2023-01-28T00:04:33.686Z,100442.85
2023-01-28T00:07:02.675Z,100442.45
2023-01-28T00:09:30.771Z,100439.77
2023-01-28T00:11:59.151Z,100439.44
2023-01-28T00:14:27.836Z,100436.52
2023-01-28T00:17:00.177Z,100435.38
2023-01-28T00:19:28.288Z,100434.95
2023-01-28T00:21:56.963Z,100433.36
2023-01-28T00:24:24.998Z,100436.32
2023-01-28T00:26:53.053Z,100435.31
2023-01-28T00:29:21.295Z,100435.71
2023-01-28T00:31:49.207Z,100432.94
2023-01-28T00:34:17.532Z,100426.80
2023-01-28T00:36:46.028Z,100427.11
2023-01-28T00:39:15.340Z,100430.13
2023-01-28T00:41:43.491Z,100437.65
2023-01-28T00:44:11.831Z,100448.49
2023-01-28T00:46:42.263Z,100447.20
2023-01-28T00:49:10.374Z,100445.01
2023-01-28T00:51:38.547Z,100440.50
2023-01-28T00:54:06.789Z,100442.14
2023-01-28T00:56:36.916Z,100445.25
2023-01-28T00:59:09.915Z,100449.20
2023-01-28T01:01:39.174Z,100453.74
2023-01-28T01:04:07.309Z,100442.38
2023-01-28T01:06:38.622Z,100439.27
2023-01-28T01:09:09.024Z,100437.77
2023-01-28T01:11:37.544Z,100439.41
2023-01-28T01:14:07.345Z,100434.59
2023-01-28T01:16:36.293Z,100434.73
2023-01-28T01:19:04.480Z,100436.20
2023-01-28T01:21:32.506Z,100439.33
2023-01-28T01:24:00.523Z,100439.14
2023-01-28T01:26:28.832Z,100439.30
2023-01-28T01:28:58.668Z,100435.10
2023-01-28T01:31:26.690Z,100434.38
2023-01-28T01:33:54.739Z,100432.70
2023-01-28T01:36:23.699Z,100430.44
2023-01-28T01:38:55.560Z,100436.29
2023-01-28T01:41:27.995Z,100441.73
2023-01-28T01:43:58.393Z,100439.92
2023-01-28T01:46:33.490Z,100440.02
2023-01-28T01:49:18.868Z,100436.95
2023-01-28T01:51:48.230Z,100438.48
2023-01-28T01:54:17.252Z,100444.64
2023-01-28T01:56:45.797Z,100450.34
2023-01-28T01:59:16.980Z,100451.33
2023-01-28T02:01:45.942Z,100451.19
2023-01-28T02:04:23.725Z,100445.23
2023-01-28T02:06:52.073Z,100443.14
2023-01-28T02:09:26.672Z,100445.73
2023-01-28T02:11:58.525Z,100444.52
2023-01-28T02:14:31.486Z,100445.79
2023-01-28T02:17:00.829Z,100440.89
2023-01-28T02:19:59.074Z,100443.63
2023-01-28T02:22:52.573Z,100446.02
2023-01-28T02:25:58.281Z,100446.54
2023-01-28T02:28:41.334Z,100445.98
2023-01-28T02:31:15.944Z,100445.46
2023-01-28T02:34:02.973Z,100449.88
2023-01-28T02:36:43.364Z,100439.73
2023-01-28T02:39:15.196Z,100433.56
2023-01-28T02:41:49.164Z,100429.98
2023-01-28T02:44:17.737Z,100427.78
2023-01-28T02:47:04.606Z,100424.79
2023-01-28T02:49:52.861Z,100417.00
2023-01-28T02:53:04.912Z,100407.90
2023-01-28T02:55:48.185Z,100401.17
2023-01-28T02:58:20.954Z,100404.48
2023-01-28T03:01:23.040Z,100405.59
2023-01-28T03:04:04.935Z,100403.75
2023-01-28T03:06:39.372Z,100397.48
2023-01-28T03:09:27.285Z,100395.70
2023-01-28T03:12:18.361Z,100397.35
2023-01-28T03:15:11.389Z,100399.94
2023-01-28T03:18:27.298Z,100404.36
2023-01-28T03:21:26.639Z,100402.34
2023-01-28T03:24:22.122Z,100408.21
2023-01-28T03:27:35.288Z,100409.52
2023-01-28T03:30:32.153Z,100408.27
2023-01-28T03:33:22.996Z,100405.73
2023-01-28T03:36:09.843Z,100403.98
2023-01-28T03:38:48.643Z,100403.11
2023-01-28T03:41:23.703Z,100411.52
2023-01-28T03:43:54.924Z,100414.72
2023-01-28T03:46:23.387Z,100413.16
2023-01-28T03:48:51.457Z,100410.92
2023-01-28T03:51:20.187Z,100413.84
2023-01-28T03:53:48.738Z,100410.83
2023-01-28T03:56:18.551Z,100411.92
2023-01-28T03:58:53.126Z,100410.45
2023-01-28T04:01:21.412Z,100412.70
2023-01-28T04:03:49.823Z,100415.64
2023-01-28T04:06:29.092Z,100411.31
2023-01-28T04:09:15.600Z,100400.73
2023-01-28T04:12:19.664Z,100403.55
2023-01-28T04:14:51.372Z,100404.15
2023-01-28T04:17:27.331Z,100402.70
2023-01-28T04:19:55.396Z,100407.00
2023-01-28T04:22:23.400Z,100415.53
2023-01-28T04:24:53.414Z,100414.84
2023-01-28T04:27:21.887Z,100416.70
2023-01-28T04:29:51.182Z,100414.92
2023-01-28T04:32:51.795Z,100417.59
2023-01-28T04:35:33.932Z,100424.91
2023-01-28T04:38:20.412Z,100430.61
2023-01-28T04:41:08.629Z,100432.69
2023-01-28T04:43:37.331Z,100431.98
2023-01-28T04:46:34.815Z,100431.00
2023-01-28T04:49:05.865Z,100431.38
2023-01-28T04:51:51.621Z,100433.21
2023-01-28T04:54:22.554Z,100435.81
2023-01-28T04:56:50.795Z,100437.73
2023-01-28T04:59:20.131Z,100440.38
2023-01-28T05:01:49.285Z,100442.41
2023-01-28T05:04:17.407Z,100443.98
2023-01-28T05:06:45.577Z,100439.30
2023-01-28T05:09:19.796Z,100446.39
2023-01-28T05:11:48.986Z,100440.00
2023-01-28T05:14:17.342Z,100441.31
2023-01-28T05:16:50.434Z,100449.20
2023-01-28T05:19:19.764Z,100449.42
2023-01-28T05:21:48.315Z,100453.80
2023-01-28T05:24:25.487Z,100452.20
2023-01-28T05:26:54.763Z,100449.37
2023-01-28T05:29:22.838Z,100453.00
2023-01-28T05:31:51.263Z,100457.77
2023-01-28T05:34:19.341Z,100458.50
2023-01-28T05:36:47.343Z,100463.31
2023-01-28T05:39:37.093Z,100465.09
2023-01-28T05:42:05.585Z,100470.17
2023-01-28T05:44:37.958Z,100475.52
2023-01-28T05:47:25.166Z,100474.17
2023-01-28T05:50:01.033Z,100468.14
2023-01-28T05:52:34.945Z,100465.23
2023-01-28T05:55:04.325Z,100463.86
2023-01-28T05:57:32.717Z,100468.08
2023-01-28T06:00:00.832Z,100473.52
2023-01-28T06:02:28.896Z,100473.23
2023-01-28T06:05:00.238Z,100472.84
2023-01-28T08:25:00.084Z,100456.42
2023-01-28T08:27:28.611Z,100451.31
2023-01-28T08:29:56.761Z,100455.02
2023-01-28T08:32:24.909Z,100457.27
2023-01-28T08:34:54.141Z,100454.45
2023-01-28T08:37:22.682Z,100450.89
2023-01-28T08:39:51.131Z,100450.39
2023-01-28T08:42:23.087Z,100442.58
2023-01-28T08:44:51.223Z,100442.94
2023-01-28T08:47:19.223Z,100441.23
2023-01-28T08:49:51.121Z,100439.42
2023-01-28T08:52:19.340Z,100433.22
2023-01-28T08:54:47.569Z,100423.09
2023-01-28T08:57:15.686Z,100422.41
2023-01-28T08:59:46.274Z,100419.17
2023-01-28T09:02:29.403Z,100413.67
2023-01-28T09:05:00.129Z,100411.83
2023-01-28T09:07:28.519Z,100406.79
2023-01-28T09:09:56.940Z,100410.29
2023-01-28T09:12:25.178Z,100407.20
2023-01-28T09:14:53.853Z,100406.59
2023-01-28T09:17:22.095Z,100404.59
2023-01-28T09:19:50.578Z,100402.50
2023-01-28T09:22:18.674Z,100395.48
2023-01-28T09:24:47.032Z,100388.12
2023-01-28T09:27:15.124Z,100383.02
2023-01-28T09:29:43.354Z,100384.42
2023-01-28T09:32:11.389Z,100379.48
2023-01-28T09:34:39.431Z,100379.14
2023-01-28T09:37:07.629Z,100377.65
2023-01-28T09:39:35.831Z,100377.17
2023-01-28T09:42:47.790Z,100375.93
2023-01-28T09:45:28.771Z,100377.42
2023-01-28T09:47:58.626Z,100379.44
2023-01-28T09:50:35.732Z,100376.77
2023-01-28T09:53:12.857Z,100370.24
2023-01-28T09:55:46.357Z,100367.21
2023-01-28T09:58:16.457Z,100364.80
2023-01-28T10:01:03.325Z,100365.30
2023-01-28T10:03:43.684Z,100357.64
2023-01-28T10:06:14.432Z,100355.96
2023-01-28T10:09:07.911Z,100357.39
2023-01-28T10:12:04.848Z,100358.79
2023-01-28T10:24:17.162Z,100330.67
2023-01-28T10:26:45.552Z,100332.00
2023-01-28T10:29:17.488Z,100332.17
2023-01-28T10:31:53.436Z,100330.75
2023-01-28T10:34:22.110Z,100330.46
2023-01-28T10:36:50.544Z,100337.52
2023-01-28T10:39:22.395Z,100335.82
2023-01-28T10:41:57.856Z,100330.89
2023-01-28T10:44:34.971Z,100329.09
2023-01-28T10:47:08.995Z,100325.96
2023-01-28T10:49:41.808Z,100322.59
2023-01-28T10:52:14.214Z,100320.23
2023-01-28T10:54:42.404Z,100313.82
2023-01-28T10:57:13.344Z,100313.96
2023-01-28T10:59:44.523Z,100310.85
2023-01-28T11:02:39.117Z,100303.38
2023-01-28T11:05:18.290Z,100297.04
2023-01-28T11:07:48.980Z,100295.59
2023-01-28T11:10:26.791Z,100293.14
2023-01-28T11:12:58.783Z,100289.98
2023-01-28T11:15:27.528Z,100287.22
2023-01-28T11:18:10.705Z,100287.02
2023-01-28T11:20:41.668Z,100284.48
2023-01-28T11:23:23.008Z,100282.81
2023-01-28T11:26:00.296Z,100278.65
2023-01-28T11:28:28.574Z,100278.20
2023-01-28T11:30:57.335Z,100277.98
2023-01-28T11:33:34.210Z,100277.39
2023-01-28T11:36:19.075Z,100276.94
2023-01-28T11:38:55.129Z,100275.06
2023-01-28T11:41:30.381Z,100276.82
2023-01-28T11:43:59.197Z,100286.40
2023-01-28T11:46:30.236Z,100283.10
2023-01-28T11:49:19.648Z,100279.53
2023-01-28T11:52:07.481Z,100281.46
2023-01-28T11:55:18.522Z,100276.48
2023-01-28T11:57:50.849Z,100272.16
2023-01-28T12:00:43.662Z,100271.79
2023-01-28T12:03:34.705Z,100272.06
2023-01-28T14:25:21.272Z,100266.56
2023-01-28T14:27:52.470Z,100272.45
2023-01-28T14:30:50.158Z,100268.32
2023-01-28T14:33:18.607Z,100270.45
2023-01-28T14:35:47.634Z,100264.20
2023-01-28T14:38:17.894Z,100269.64
2023-01-28T14:40:45.953Z,100266.88
2023-01-28T14:43:17.133Z,100269.77
2023-01-28T14:46:10.292Z,100272.05
2023-01-28T14:48:38.566Z,100269.05
2023-01-28T14:51:31.474Z,100268.92
2023-01-28T14:54:17.814Z,100271.95
2023-01-28T14:57:13.971Z,100270.80
2023-01-28T14:59:49.712Z,100274.41
2023-01-28T15:02:28.456Z,100274.48
2023-01-28T15:05:11.281Z,100271.14
2023-01-28T15:07:39.516Z,100270.88
2023-01-28T15:10:20.437Z,100275.17
2023-01-28T15:12:54.649Z,100278.05
2023-01-28T15:15:33.319Z,100277.85
2023-01-28T15:18:13.459Z,100277.13
2023-01-28T15:20:50.111Z,100274.96
2023-01-28T15:23:29.396Z,100278.02
2023-01-28T15:25:57.450Z,100278.13
2023-01-28T15:28:37.215Z,100279.02
2023-01-28T15:31:05.777Z,100284.27
2023-01-28T15:33:38.356Z,100288.40
2023-01-28T15:36:07.146Z,100297.23
2023-01-28T15:38:35.727Z,100299.63
2023-01-28T15:41:03.803Z,100309.80
2023-01-28T15:43:36.292Z,100310.08
2023-01-28T15:46:11.412Z,100312.16
2023-01-28T15:48:42.012Z,100316.45
2023-01-28T15:51:18.897Z,100319.83
2023-01-28T15:53:50.458Z,100324.81
2023-01-28T15:56:25.482Z,100331.19
2023-01-28T15:58:53.669Z,100333.59
2023-01-28T16:01:22.473Z,100333.30
2023-01-28T16:04:05.089Z,100336.20
2023-01-28T16:06:36.817Z,100334.64
2023-01-28T16:09:06.531Z,100335.33
2023-01-28T16:11:41.891Z,100331.38
2023-01-28T16:14:28.050Z,100330.98
2023-01-28T16:16:57.841Z,100335.27
2023-01-28T16:19:48.202Z,100335.55
2023-01-28T16:22:20.771Z,100335.33
2023-01-28T16:24:52.749Z,100334.14
2023-01-28T16:27:28.790Z,100333.38
2023-01-28T16:29:57.554Z,100332.41
2023-01-28T16:32:36.623Z,100330.64
2023-01-28T16:35:18.873Z,100326.73
2023-01-28T16:37:48.106Z,100324.63
2023-01-28T16:40:22.198Z,100324.41
2023-01-28T16:42:50.361Z,100324.14
2023-01-28T16:45:23.272Z,100322.35
2023-01-28T16:47:51.879Z,100322.49
2023-01-28T16:50:22.031Z,100325.33
2023-01-28T16:52:51.801Z,100323.86
2023-01-28T16:55:20.682Z,100325.36
2023-01-28T16:57:49.340Z,100320.13
2023-01-28T17:00:23.338Z,100318.38
2023-01-28T17:02:52.267Z,100319.23
2023-01-28T17:05:23.352Z,100321.55
2023-01-28T17:07:56.386Z,100324.04
2023-01-28T17:10:25.100Z,100323.29
2023-01-28T17:12:54.468Z,100321.02
2023-01-28T17:15:22.487Z,100325.75
2023-01-28T17:17:52.966Z,100324.46
2023-01-28T17:20:21.370Z,100326.05
2023-01-28T17:22:49.827Z,100327.48
2023-01-28T17:25:18.342Z,100332.60
2023-01-28T17:27:48.802Z,100334.11
2023-01-28T17:30:19.991Z,100333.73
2023-01-28T17:32:48.114Z,100334.98
2023-01-28T17:35:16.760Z,100330.25
2023-01-28T17:37:47.896Z,100330.61
2023-01-28T17:40:16.073Z,100329.44
2023-01-28T17:42:44.862Z,100332.48
2023-01-28T17:45:17.544Z,100331.84
2023-01-28T17:47:46.138Z,100331.98
2023-01-28T17:50:14.145Z,100334.11
2023-01-28T17:52:44.118Z,100334.86
2023-01-28T17:55:12.340Z,100328.50
2023-01-28T17:57:40.733Z,100333.38
2023-01-28T18:00:10.665Z,100335.55
2023-01-28T18:02:41.560Z,100341.21
2023-01-28T18:05:09.991Z,100343.63
2023-01-28T18:07:44.088Z,100336.57
2023-01-28T20:22:11.770Z,100363.52
2023-01-28T20:24:39.925Z,100361.95
2023-01-28T20:27:08.083Z,100369.83
2023-01-28T20:29:36.080Z,100368.80
2023-01-28T20:32:15.845Z,100372.45
2023-01-28T20:34:46.637Z,100372.86
2023-01-28T20:37:14.706Z,100377.09
2023-01-28T20:39:42.774Z,100370.96
2023-01-28T20:42:13.610Z,100374.67
2023-01-28T20:44:41.576Z,100377.85
2023-01-28T20:47:09.855Z,100378.02
2023-01-28T20:49:38.219Z,100374.92
2023-01-28T20:52:06.515Z,100375.41
2023-01-28T20:54:34.991Z,100376.89
2023-01-28T20:57:03.064Z,100383.14
2023-01-28T20:59:32.665Z,100375.95
2023-01-28T21:02:01.046Z,100372.96
2023-01-28T21:04:29.547Z,100369.88
2023-01-28T21:06:57.594Z,100365.20
2023-01-28T21:09:27.804Z,100362.41
2023-01-28T21:11:58.879Z,100363.88
2023-01-28T21:14:27.237Z,100365.09
2023-01-28T21:16:55.455Z,100367.61
2023-01-28T21:19:23.796Z,100368.77
2023-01-28T21:21:52.080Z,100369.83
2023-01-28T21:24:22.988Z,100364.34
2023-01-28T21:26:51.492Z,100363.77
2023-01-28T21:29:19.736Z,100366.57
2023-01-28T21:31:48.065Z,100359.55
2023-01-28T21:34:17.137Z,100357.61
2023-01-28T21:36:45.158Z,100355.70
2023-01-28T21:39:13.376Z,100359.52
2023-01-28T21:41:42.074Z,100356.86
2023-01-28T21:44:11.674Z,100358.21
2023-01-28T21:46:40.443Z,100354.35
2023-01-28T21:49:10.093Z,100359.55
2023-01-28T21:51:39.779Z,100361.92
2023-01-28T21:54:10.468Z,100358.91
2023-01-28T21:56:38.570Z,100358.06
2023-01-28T21:59:25.594Z,100355.77
2023-01-28T22:01:54.848Z,100353.95
2023-01-28T22:04:30.916Z,100365.33
2023-01-28T22:06:59.536Z,100368.92
2023-01-28T22:09:28.227Z,100375.84
2023-01-28T22:11:57.620Z,100378.39
2023-01-28T22:14:25.947Z,100379.30
2023-01-28T22:16:54.344Z,100380.77
2023-01-28T22:19:22.454Z,100379.29
2023-01-28T22:21:50.460Z,100376.50
2023-01-28T22:24:20.092Z,100377.39
2023-01-28T22:26:48.409Z,100378.33
2023-01-28T22:29:17.498Z,100376.44
2023-01-28T22:31:46.613Z,100373.07
2023-01-28T22:34:15.254Z,100378.23
2023-01-28T22:36:43.950Z,100382.94
2023-01-28T22:39:13.858Z,100386.42
2023-01-28T22:41:42.210Z,100387.95
2023-01-28T22:44:10.319Z,100384.23
2023-01-28T22:46:38.497Z,100377.58
2023-01-28T22:49:06.579Z,100376.95
2023-01-28T22:51:35.797Z,100378.14
2023-01-28T22:54:03.974Z,100378.11
2023-01-28T22:56:32.156Z,100378.48
2023-01-28T22:59:02.770Z,100374.22
2023-01-28T23:01:31.199Z,100373.02
2023-01-28T23:03:59.280Z,100370.34
2023-01-28T23:06:27.760Z,100367.89
2023-01-28T23:08:56.603Z,100366.06
2023-01-28T23:11:25.445Z,100363.59
2023-01-28T23:14:13.400Z,100364.67
2023-01-28T23:17:00.187Z,100362.09
2023-01-28T23:19:47.029Z,100361.21
2023-01-28T23:22:51.892Z,100355.99
2023-01-28T23:25:20.061Z,100351.80
2023-01-28T23:27:48.043Z,100343.95
2023-01-28T23:30:16.636Z,100349.21
2023-01-28T23:32:47.280Z,100349.05
2023-01-28T23:35:15.650Z,100348.24
2023-01-28T23:37:44.035Z,100345.95
2023-01-28T23:40:12.880Z,100342.45
2023-01-28T23:42:41.936Z,100346.10
2023-01-28T23:45:13.563Z,100343.21
2023-01-28T23:47:41.912Z,100346.69
2023-01-28T23:50:10.753Z,100346.16
2023-01-28T23:52:39.368Z,100343.59
2023-01-28T23:55:08.016Z,100343.39
2023-01-28T23:57:36.167Z,100345.38
